Time;durP1;ratioP1;P1;durP2;ratioP2;P2;SDS_P1;SDS_P2;PMS_P1;PMS_P2;Temp;Humidity;BMP_temperature;BMP_pressure;BME280_temperature;BME280_humidity;BME280_pressure;Samples;Min_cycle;Max_cycle;Signal;HPM_P1;HPM_P2
2021/09/28 00:00:11;;;;;;;8.83;2.27;;;15.70;89.00;;;;;;5053371;28;20456;-68
2021/09/28 00:02:37;;;;;;;5.70;2.30;;;15.70;89.20;;;;;;5053140;28;20813;-68
2021/09/28 00:05:08;;;;;;;7.90;2.73;;;15.70;89.20;;;;;;5053374;28;20457;-68
2021/09/28 00:07:34;;;;;;;7.57;2.30;;;15.60;89.10;;;;;;5053187;28;20469;-68
2021/09/28 00:10:02;;;;;;;11.57;2.77;;;15.60;88.80;;;;;;5054091;28;20430;-68
2021/09/28 00:12:29;;;;;;;6.03;2.40;;;15.60;89.50;;;;;;5053779;28;20531;-68
2021/09/28 00:14:56;;;;;;;12.20;2.63;;;15.70;89.00;;;;;;5054985;28;20488;-68
2021/09/28 00:17:23;;;;;;;4.57;2.07;;;15.60;88.90;;;;;;5053833;28;21002;-68
2021/09/28 00:19:49;;;;;;;6.53;2.40;;;15.60;88.80;;;;;;5054218;28;20498;-67
2021/09/28 00:22:17;;;;;;;8.73;2.60;;;15.70;89.20;;;;;;5054177;28;20442;-68
2021/09/28 00:24:44;;;;;;;4.20;2.27;;;15.70;89.20;;;;;;5056779;28;20535;-68
2021/09/28 00:27:11;;;;;;;16.63;3.83;;;15.60;89.10;;;;;;5056949;28;20477;-68
2021/09/28 00:29:38;;;;;;;12.77;2.80;;;15.60;89.10;;;;;;5056817;28;20455;-68
2021/09/28 00:32:06;;;;;;;4.20;2.20;;;15.60;89.00;;;;;;5056718;28;20488;-68
2021/09/28 00:34:33;;;;;;;5.07;2.27;;;15.60;88.60;;;;;;5056758;28;20954;-68
2021/09/28 00:37:00;;;;;;;11.90;2.47;;;15.50;88.90;;;;;;5056796;28;20470;-68
2021/09/28 00:39:28;;;;;;;12.60;2.60;;;15.50;89.10;;;;;;5056553;28;20449;-68
2021/09/28 00:41:54;;;;;;;6.20;2.43;;;15.50;89.30;;;;;;5056801;28;20441;-68
2021/09/28 00:44:31;;;;;;;12.90;2.80;;;15.50;89.50;;;;;;5056883;28;20452;-68
2021/09/28 00:46:57;;;;;;;10.77;3.20;;;15.50;89.30;;;;;;5056795;28;20465;-68
2021/09/28 00:49:24;;;;;;;6.50;2.67;;;15.40;89.30;;;;;;5056775;28;20450;-68
2021/09/28 00:51:51;;;;;;;8.03;2.10;;;15.40;89.30;;;;;;5056627;28;20477;-68
2021/09/28 00:54:19;;;;;;;11.13;2.27;;;15.40;89.40;;;;;;5056651;28;20448;-68
2021/09/28 00:56:47;;;;;;;9.33;2.53;;;15.40;89.30;;;;;;5056182;28;20974;-68
2021/09/28 00:59:14;;;;;;;8.60;2.80;;;15.40;89.50;;;;;;5056136;28;20832;-68
2021/09/28 01:01:40;;;;;;;5.10;2.27;;;15.30;89.60;;;;;;5056382;28;20448;-68
2021/09/28 01:04:08;;;;;;;8.93;2.20;;;15.30;89.50;;;;;;5056138;28;20448;-68
2021/09/28 01:06:34;;;;;;;16.13;3.90;;;15.30;89.50;;;;;;5056473;28;20468;-68
2021/09/28 01:09:01;;;;;;;10.33;2.37;;;15.30;89.30;;;;;;5056251;28;20445;-68
2021/09/28 01:11:28;;;;;;;16.60;2.60;;;15.30;89.60;;;;;;5056080;28;20973;-68
2021/09/28 01:13:56;;;;;;;9.33;2.47;;;15.30;89.80;;;;;;5057173;28;20458;-68
2021/09/28 01:16:24;;;;;;;11.13;2.43;;;15.20;89.70;;;;;;5055960;28;20471;-68
2021/09/28 01:18:50;;;;;;;9.50;2.30;;;15.20;89.20;;;;;;5056293;28;20446;-68
2021/09/28 01:21:20;;;;;;;9.60;2.60;;;15.20;89.40;;;;;;5056226;28;20448;-68
2021/09/28 01:23:47;;;;;;;11.10;2.60;;;15.20;89.10;;;;;;5056180;28;20939;-68
2021/09/28 01:26:16;;;;;;;19.77;3.00;;;15.10;88.80;;;;;;5056075;28;20478;-68
2021/09/28 01:28:43;;;;;;;11.23;3.00;;;15.10;89.10;;;;;;5055749;28;20951;-68
2021/09/28 01:31:10;;;;;;;7.03;3.00;;;15.10;89.40;;;;;;5055926;28;20457;-68
2021/09/28 01:33:38;;;;;;;10.07;2.33;;;15.10;89.70;;;;;;5055100;28;21035;-68
2021/09/28 01:36:05;;;;;;;10.03;2.87;;;15.10;89.50;;;;;;5055205;28;20448;-68
2021/09/28 01:38:33;;;;;;;12.57;3.67;;;15.00;89.30;;;;;;5055829;28;20430;-68
2021/09/28 01:41:01;;;;;;;9.50;2.53;;;15.00;89.20;;;;;;5055416;28;20965;-67
2021/09/28 01:43:28;;;;;;;8.43;2.60;;;14.90;88.80;;;;;;5055709;28;20444;-67
2021/09/28 01:45:56;;;;;;;12.97;2.73;;;14.90;89.30;;;;;;5055420;28;20454;-68
2021/09/28 01:48:26;;;;;;;15.23;2.87;;;14.90;89.40;;;;;;5055598;28;20495;-68
2021/09/28 01:50:52;;;;;;;11.80;2.70;;;14.90;89.80;;;;;;5055677;28;20446;-68
2021/09/28 01:53:19;;;;;;;8.33;2.43;;;14.90;89.90;;;;;;5055705;28;20548;-68
2021/09/28 01:55:47;;;;;;;10.90;2.53;;;14.90;90.00;;;;;;5055524;28;20452;-68
2021/09/28 01:58:17;;;;;;;9.90;2.57;;;14.90;90.00;;;;;;5055486;28;20465;-68
2021/09/28 02:00:44;;;;;;;12.00;2.57;;;14.90;90.00;;;;;;5055278;28;20446;-68
2021/09/28 02:03:11;;;;;;;14.70;2.47;;;14.90;90.10;;;;;;5055368;28;20453;-68
2021/09/28 02:05:39;;;;;;;6.90;2.80;;;14.90;90.10;;;;;;5055328;28;20453;-68
2021/09/28 02:08:06;;;;;;;6.80;2.47;;;14.90;90.00;;;;;;5055160;28;20535;-68
2021/09/28 02:10:33;;;;;;;7.80;2.57;;;14.90;90.10;;;;;;5055134;28;20450;-68
2021/09/28 02:13:01;;;;;;;8.23;2.60;;;14.90;90.00;;;;;;5054738;28;20480;-68
2021/09/28 02:15:28;;;;;;;10.50;2.77;;;14.90;90.00;;;;;;5055034;28;20441;-68
2021/09/28 02:17:55;;;;;;;9.93;3.00;;;14.90;90.00;;;;;;5054970;28;20461;-68
2021/09/28 02:20:21;;;;;;;9.00;2.30;;;14.90;89.60;;;;;;5055087;28;20515;-68
2021/09/28 02:22:48;;;;;;;13.30;3.27;;;14.90;89.60;;;;;;5054920;28;20457;-68
2021/09/28 02:25:18;;;;;;;9.30;2.80;;;14.80;89.50;;;;;;5054868;28;20446;-68
2021/09/28 02:27:45;;;;;;;12.00;2.50;;;14.80;89.40;;;;;;5054459;28;20975;-68
2021/09/28 02:30:14;;;;;;;12.23;2.83;;;14.80;89.70;;;;;;5054777;28;20436;-68
2021/09/28 02:32:41;;;;;;;11.03;2.87;;;14.80;89.40;;;;;;5054338;28;21037;-68
2021/09/28 02:35:08;;;;;;;12.27;3.10;;;14.80;89.20;;;;;;5054604;28;20521;-68
2021/09/28 02:37:35;;;;;;;12.70;2.40;;;14.80;89.00;;;;;;5054545;28;20549;-68
2021/09/28 02:40:02;;;;;;;14.53;2.80;;;14.80;89.50;;;;;;5054482;28;20454;-68
2021/09/28 02:42:29;;;;;;;11.50;2.30;;;14.80;89.70;;;;;;5054565;28;20524;-68
2021/09/28 02:44:56;;;;;;;9.23;2.50;;;14.80;89.90;;;;;;5054446;28;20426;-68
2021/09/28 02:47:25;;;;;;;8.87;2.47;;;14.80;89.60;;;;;;5054395;28;20560;-68
2021/09/28 02:49:52;;;;;;;10.83;2.50;;;14.80;89.70;;;;;;5054179;28;20795;-68
2021/09/28 02:52:19;;;;;;;8.50;2.20;;;14.80;89.70;;;;;;5054403;28;20845;-68
2021/09/28 02:54:46;;;;;;;9.40;2.13;;;14.90;89.60;;;;;;5054414;28;20437;-68
2021/09/28 02:57:12;;;;;;;10.73;1.90;;;14.90;89.00;;;;;;5053957;28;20469;-68
2021/09/28 02:59:39;;;;;;;6.30;1.80;;;14.90;88.90;;;;;;5053812;28;20931;-68
2021/09/28 03:02:06;;;;;;;6.00;2.27;;;14.90;88.60;;;;;;5054124;28;20445;-68
2021/09/28 03:04:35;;;;;;;10.20;1.80;;;14.90;88.60;;;;;;5054224;28;20446;-68
2021/09/28 03:07:02;;;;;;;4.63;1.97;;;14.90;88.50;;;;;;5054069;28;20469;-68
2021/09/28 03:09:29;;;;;;;8.70;2.50;;;14.90;88.60;;;;;;5054196;28;20450;-68
2021/09/28 03:11:55;;;;;;;15.20;2.50;;;14.90;88.30;;;;;;5054224;28;20441;-68
2021/09/28 03:14:22;;;;;;;16.20;2.23;;;14.90;88.20;;;;;;5054274;28;20454;-68
2021/09/28 03:16:49;;;;;;;9.57;1.90;;;14.80;88.10;;;;;;5054330;28;20545;-68
2021/09/28 03:19:17;;;;;;;10.67;2.47;;;14.80;88.60;;;;;;5054315;28;20441;-68
2021/09/28 03:21:45;;;;;;;8.13;2.53;;;14.80;88.50;;;;;;5054128;28;20810;-68
2021/09/28 03:24:12;;;;;;;4.13;1.53;;;14.80;88.70;;;;;;5053799;28;20935;-68
2021/09/28 03:26:38;;;;;;;10.73;2.67;;;14.80;88.60;;;;;;5053797;28;20470;-68
2021/09/28 03:29:05;;;;;;;13.53;2.17;;;14.70;88.30;;;;;;5054989;28;20453;-68
2021/09/28 03:31:32;;;;;;;9.50;2.13;;;14.70;88.60;;;;;;5053529;28;20433;-68
2021/09/28 03:33:59;;;;;;;6.70;2.43;;;14.70;88.60;;;;;;5053239;28;20556;-68
2021/09/28 03:36:25;;;;;;;6.70;1.90;;;14.70;88.90;;;;;;5053576;28;20473;-68
2021/09/28 03:38:54;;;;;;;8.53;2.17;;;14.70;88.90;;;;;;5053514;28;20460;-68
2021/09/28 03:41:20;;;;;;;8.23;2.77;;;14.70;88.70;;;;;;5053679;28;20457;-68
2021/09/28 03:43:47;;;;;;;12.47;1.77;;;14.70;88.80;;;;;;5053500;28;20446;-68
2021/09/28 03:46:14;;;;;;;8.70;2.23;;;14.70;89.00;;;;;;5053162;28;20987;-68
2021/09/28 03:48:41;;;;;;;14.03;2.23;;;14.70;89.00;;;;;;5053585;28;20840;-68
2021/09/28 03:51:07;;;;;;;8.00;2.60;;;14.60;89.00;;;;;;5053392;28;20410;-68
2021/09/28 03:53:35;;;;;;;6.20;1.87;;;14.60;88.90;;;;;;5053852;28;20531;-68
2021/09/28 03:56:03;;;;;;;11.27;2.40;;;14.60;89.00;;;;;;5053598;28;20449;-68
2021/09/28 03:58:29;;;;;;;7.90;1.90;;;14.50;89.00;;;;;;5056355;28;20468;-68
2021/09/28 04:00:56;;;;;;;6.90;1.80;;;14.50;89.00;;;;;;5058236;28;20464;-68
2021/09/28 04:03:23;;;;;;;9.17;2.27;;;14.50;89.10;;;;;;5058914;28;20434;-68
2021/09/28 04:05:50;;;;;;;8.70;1.90;;;14.50;89.00;;;;;;5057883;28;20460;-68
2021/09/28 04:08:16;;;;;;;11.47;2.77;;;14.50;89.00;;;;;;5057559;28;20473;-68
2021/09/28 04:10:43;;;;;;;9.20;2.90;;;14.40;89.70;;;;;;5057998;28;20456;-68
2021/09/28 04:13:11;;;;;;;10.50;2.30;;;14.40;89.30;;;;;;5057332;28;20477;-68
2021/09/28 04:15:41;;;;;;;14.90;2.03;;;14.30;90.10;;;;;;5057134;28;20465;-68
2021/09/28 04:18:08;;;;;;;7.47;2.20;;;14.30;89.70;;;;;;5058148;28;20527;-68
2021/09/28 04:20:39;;;;;;;6.20;2.00;;;14.20;89.80;;;;;;5056947;28;20448;-68
2021/09/28 04:23:06;;;;;;;5.80;2.03;;;14.20;90.00;;;;;;5057279;28;20429;-67
2021/09/28 04:25:33;;;;;;;8.27;2.07;;;14.30;90.10;;;;;;5057097;28;20449;-68
2021/09/28 04:27:59;;;;;;;9.53;2.30;;;14.20;90.00;;;;;;5057009;28;20473;-68
2021/09/28 04:30:27;;;;;;;11.27;2.53;;;14.20;90.00;;;;;;5057288;28;20437;-67
2021/09/28 04:32:55;;;;;;;6.00;1.80;;;14.20;90.00;;;;;;5056705;28;20847;-67
2021/09/28 04:35:21;;;;;;;6.67;2.00;;;14.20;90.10;;;;;;5056613;28;20484;-68
2021/09/28 04:37:48;;;;;;;9.30;2.30;;;14.20;90.10;;;;;;5057061;28;20477;-68
2021/09/28 04:40:16;;;;;;;9.40;2.23;;;14.20;90.10;;;;;;5056943;28;20430;-68
2021/09/28 04:42:43;;;;;;;4.83;1.80;;;14.20;90.10;;;;;;5057380;28;20884;-68
2021/09/28 04:45:10;;;;;;;6.33;1.60;;;14.10;90.00;;;;;;5056786;28;20450;-68
2021/09/28 04:47:39;;;;;;;8.03;1.50;;;14.10;90.10;;;;;;5056695;28;20457;-68
2021/09/28 04:50:07;;;;;;;4.90;1.40;;;14.10;90.20;;;;;;5056804;28;20462;-68
2021/09/28 04:52:36;;;;;;;12.40;2.00;;;14.10;90.30;;;;;;5056249;28;20966;-68
2021/09/28 04:55:03;;;;;;;10.70;1.60;;;14.00;90.50;;;;;;5056426;28;20449;-68
2021/09/28 04:57:30;;;;;;;7.60;1.50;;;14.00;90.20;;;;;;5056542;28;20470;-68
2021/09/28 04:59:56;;;;;;;6.30;1.20;;;14.00;90.20;;;;;;5056526;28;20464;-68
2021/09/28 05:02:23;;;;;;;12.33;2.60;;;14.00;90.30;;;;;;5056405;28;20452;-68
2021/09/28 05:04:51;;;;;;;7.03;1.93;;;14.10;90.30;;;;;;5056560;28;20430;-68
2021/09/28 05:07:18;;;;;;;7.93;2.03;;;14.00;90.10;;;;;;5056446;28;20465;-68
2021/09/28 05:09:44;;;;;;;8.63;2.20;;;14.00;90.10;;;;;;5056338;28;20460;-68
2021/09/28 05:12:11;;;;;;;5.77;1.57;;;14.00;90.20;;;;;;5056251;28;20922;-68
2021/09/28 05:14:38;;;;;;;14.90;1.70;;;14.00;90.20;;;;;;5056157;28;20558;-68
2021/09/28 05:17:05;;;;;;;7.83;1.80;;;14.00;90.20;;;;;;5056091;28;20827;-67
2021/09/28 05:19:32;;;;;;;10.97;1.93;;;14.00;90.10;;;;;;5055858;28;20453;-67
2021/09/28 05:22:00;;;;;;;5.20;1.77;;;14.00;90.10;;;;;;5055846;28;20446;-67
2021/09/28 05:24:27;;;;;;;10.20;2.13;;;14.00;90.10;;;;;;5055528;28;20923;-67
2021/09/28 05:26:53;;;;;;;11.10;1.60;;;14.00;90.10;;;;;;5055725;28;20465;-68
2021/09/28 05:29:20;;;;;;;5.73;1.80;;;13.90;90.00;;;;;;5055409;28;20939;-67
2021/09/28 05:31:47;;;;;;;15.53;3.10;;;13.90;90.00;;;;;;5055543;28;20465;-67
2021/09/28 05:34:15;;;;;;;7.13;1.87;;;13.90;90.20;;;;;;5056286;28;20466;-67
2021/09/28 05:36:42;;;;;;;13.00;2.10;;;13.90;90.20;;;;;;5055664;28;20466;-68
2021/09/28 05:39:10;;;;;;;6.07;1.93;;;13.90;90.10;;;;;;5055605;28;20469;-68
2021/09/28 05:41:37;;;;;;;7.90;1.40;;;13.90;90.00;;;;;;5055507;28;20449;-68
2021/09/28 05:44:04;;;;;;;9.07;1.93;;;13.90;89.90;;;;;;5055032;28;20931;-67
2021/09/28 05:46:31;;;;;;;6.17;1.30;;;13.90;89.90;;;;;;5055363;28;20469;-68
2021/09/28 05:48:58;;;;;;;7.27;1.80;;;14.00;89.70;;;;;;5055436;28;20499;-68
2021/09/28 05:51:27;;;;;;;7.10;1.73;;;14.00;89.70;;;;;;5055303;28;20787;-68
2021/09/28 05:53:56;;;;;;;5.03;1.60;;;14.00;90.00;;;;;;5056103;28;20799;-68
2021/09/28 05:56:25;;;;;;;4.50;1.57;;;14.00;89.50;;;;;;5055263;28;20470;-68
2021/09/28 05:58:51;;;;;;;13.47;2.50;;;14.00;89.70;;;;;;5055141;28;20471;-68
2021/09/28 06:01:18;;;;;;;5.00;1.67;;;14.10;89.70;;;;;;5055154;28;20805;-68
2021/09/28 06:03:45;;;;;;;8.13;1.77;;;14.10;89.60;;;;;;5055118;28;20449;-68
2021/09/28 06:06:12;;;;;;;5.03;1.43;;;14.00;89.20;;;;;;5054669;28;20434;-68
2021/09/28 06:08:39;;;;;;;12.67;2.40;;;14.00;89.40;;;;;;5055072;28;20428;-68
2021/09/28 06:11:06;;;;;;;7.03;2.40;;;14.10;89.60;;;;;;5055015;28;20446;-68
2021/09/28 06:13:34;;;;;;;5.63;1.70;;;14.10;89.60;;;;;;5054546;28;20473;-68
2021/09/28 06:16:00;;;;;;;7.93;1.80;;;14.10;89.50;;;;;;5054440;28;20912;-68
2021/09/28 06:18:27;;;;;;;7.00;1.77;;;14.10;89.70;;;;;;5054925;28;20445;-68
2021/09/28 06:20:54;;;;;;;5.00;1.60;;;14.10;89.70;;;;;;5054202;28;20434;-68
2021/09/28 06:23:21;;;;;;;6.57;1.97;;;14.10;89.70;;;;;;5054405;28;20450;-68
2021/09/28 06:25:47;;;;;;;8.23;2.23;;;14.20;89.70;;;;;;5054394;28;20904;-68
2021/09/28 06:28:14;;;;;;;5.70;1.33;;;14.20;89.70;;;;;;5054491;28;20474;-68
2021/09/28 06:30:43;;;;;;;8.87;2.10;;;14.20;89.70;;;;;;5054560;28;20445;-68
2021/09/28 06:33:10;;;;;;;7.70;1.37;;;14.20;89.60;;;;;;5054322;28;20538;-68
2021/09/28 06:35:36;;;;;;;8.90;2.13;;;14.20;89.40;;;;;;5054202;28;20943;-68
2021/09/28 06:38:06;;;;;;;13.43;2.60;;;14.20;89.50;;;;;;5054443;28;20466;-68
2021/09/28 06:40:33;;;;;;;14.57;2.93;;;14.20;89.60;;;;;;5054407;28;20454;-68
2021/09/28 06:43:00;;;;;;;5.60;2.20;;;14.30;89.70;;;;;;5054453;28;20430;-68
2021/09/28 06:45:27;;;;;;;10.33;2.10;;;14.30;89.60;;;;;;5054288;28;20450;-68
2021/09/28 06:47:55;;;;;;;11.80;2.10;;;14.30;89.80;;;;;;5053751;28;20477;-68
2021/09/28 06:50:22;;;;;;;4.80;1.47;;;14.30;90.00;;;;;;5054222;28;20445;-68
2021/09/28 06:52:49;;;;;;;8.57;2.50;;;14.30;90.10;;;;;;5054113;28;20449;-68
2021/09/28 06:55:16;;;;;;;10.27;1.90;;;14.40;90.20;;;;;;5053773;28;20478;-68
2021/09/28 06:57:42;;;;;;;6.97;1.87;;;14.40;90.30;;;;;;5053727;28;20462;-68
2021/09/28 07:00:11;;;;;;;19.13;2.50;;;14.50;90.30;;;;;;5054053;28;20434;-68
2021/09/28 07:02:37;;;;;;;16.77;2.60;;;14.50;90.00;;;;;;5054830;28;20453;-68
2021/09/28 07:05:11;;;;;;;6.27;1.60;;;14.60;90.10;;;;;;5053958;28;20442;-68
2021/09/28 07:07:38;;;;;;;8.37;1.80;;;14.70;90.10;;;;;;5053873;28;20548;-68
2021/09/28 07:10:07;;;;;;;10.90;1.73;;;14.80;90.00;;;;;;5053855;28;20437;-68
2021/09/28 07:12:35;;;;;;;13.20;1.97;;;14.80;89.50;;;;;;5053930;28;20785;-68
2021/09/28 07:15:03;;;;;;;6.30;1.70;;;14.90;89.20;;;;;;5053764;28;20485;-68
2021/09/28 07:17:29;;;;;;;6.33;1.93;;;15.00;89.10;;;;;;5053918;28;20465;-68
2021/09/28 07:19:56;;;;;;;9.70;2.17;;;15.10;88.60;;;;;;5054446;28;20450;-68
2021/09/28 07:22:26;;;;;;;9.10;2.10;;;15.20;88.40;;;;;;5053695;28;20456;-68
2021/09/28 07:24:53;;;;;;;6.57;1.53;;;15.30;88.20;;;;;;5053756;28;20433;-68
2021/09/28 07:27:19;;;;;;;16.30;2.30;;;15.30;87.60;;;;;;5053749;28;20481;-68
2021/09/28 07:29:46;;;;;;;14.83;2.20;;;15.40;87.20;;;;;;5053582;28;20452;-68
2021/09/28 07:32:14;;;;;;;15.07;2.00;;;15.40;86.60;;;;;;5052396;28;20841;-68
2021/09/28 07:34:41;;;;;;;4.87;1.60;;;15.50;86.70;;;;;;5053415;28;20485;-68
2021/09/28 07:37:08;;;;;;;7.03;1.43;;;15.50;86.10;;;;;;5053407;28;20480;-68
2021/09/28 07:39:36;;;;;;;7.60;1.47;;;15.60;86.30;;;;;;5053443;28;20456;-68
2021/09/28 07:42:03;;;;;;;7.23;1.70;;;15.70;86.70;;;;;;5053423;28;20441;-68
2021/09/28 07:44:29;;;;;;;8.67;1.80;;;15.80;86.50;;;;;;5053428;28;20442;-68
2021/09/28 07:46:58;;;;;;;4.43;1.53;;;15.80;85.00;;;;;;5053234;28;20492;-69
2021/09/28 07:49:25;;;;;;;11.33;2.30;;;15.90;84.50;;;;;;5053303;28;20807;-68
2021/09/28 07:51:51;;;;;;;12.57;1.93;;;15.90;83.90;;;;;;5052967;28;20444;-68
2021/09/28 07:54:18;;;;;;;9.07;2.13;;;16.00;84.20;;;;;;5053260;28;20473;-68
2021/09/28 07:56:46;;;;;;;6.10;1.60;;;16.10;84.10;;;;;;5053136;28;20474;-68
2021/09/28 07:59:13;;;;;;;6.90;1.80;;;16.10;83.30;;;;;;5053187;28;20441;-68
2021/09/28 08:01:40;;;;;;;12.47;1.70;;;16.20;83.00;;;;;;5053272;28;20438;-68
2021/09/28 08:04:06;;;;;;;8.47;1.90;;;16.30;83.20;;;;;;5052863;28;20951;-68
2021/09/28 08:06:33;;;;;;;9.53;1.70;;;16.40;83.40;;;;;;5053094;28;20825;-69
2021/09/28 08:09:00;;;;;;;10.20;1.70;;;16.40;83.20;;;;;;5052868;28;20433;-69
2021/09/28 08:11:27;;;;;;;6.10;2.20;;;16.50;82.70;;;;;;5052889;28;20912;-68
2021/09/28 08:13:56;;;;;;;8.07;1.97;;;16.50;82.10;;;;;;5052996;28;20487;-68
2021/09/28 08:16:23;;;;;;;11.47;1.77;;;16.50;81.00;;;;;;5052722;28;20472;-68
2021/09/28 08:18:50;;;;;;;9.57;1.70;;;16.60;81.60;;;;;;5053077;28;20441;-68
2021/09/28 08:21:19;;;;;;;7.63;1.70;;;16.60;82.20;;;;;;5052949;28;20449;-68
2021/09/28 08:23:46;;;;;;;9.73;2.50;;;16.70;81.70;;;;;;5053075;28;20460;-68
2021/09/28 08:29:11;;;;;;;9.53;2.00;;;16.80;79.80;;;;;;5052790;28;20488;-68
2021/09/28 08:31:39;;;;;;;6.87;1.57;;;16.90;81.60;;;;;;5052765;28;20473;-69
2021/09/28 08:34:07;;;;;;;10.07;1.93;;;17.00;81.30;;;;;;5052843;28;20465;-69
2021/09/28 08:36:34;;;;;;;6.47;1.60;;;17.10;81.40;;;;;;5052844;28;20480;-69
2021/09/28 08:39:01;;;;;;;7.13;1.57;;;17.10;80.90;;;;;;5052815;28;20452;-69
2021/09/28 08:41:28;;;;;;;12.00;2.27;;;17.00;78.80;;;;;;5052824;28;20449;-69
2021/09/28 08:43:55;;;;;;;4.67;1.40;;;17.10;78.80;;;;;;5054141;28;20438;-69
2021/09/28 08:46:25;;;;;;;9.60;1.80;;;17.10;79.10;;;;;;5056523;28;20465;-69
2021/09/28 08:48:51;;;;;;;5.63;1.63;;;17.20;78.60;;;;;;5056506;28;20528;-69
2021/09/28 08:51:18;;;;;;;6.40;1.77;;;17.30;78.50;;;;;;5056506;28;20809;-69
2021/09/28 08:53:45;;;;;;;4.97;1.50;;;17.40;77.60;;;;;;5056342;28;20450;-69
2021/09/28 08:56:14;;;;;;;7.63;2.00;;;17.60;76.70;;;;;;5056359;28;20436;-69
2021/09/28 08:58:53;;;;;;;5.87;1.70;;;17.70;75.60;;;;;;5056321;28;20460;-69
2021/09/28 09:01:20;;;;;;;6.50;1.30;;;17.80;75.80;;;;;;5056372;28;20518;-69
2021/09/28 09:03:48;;;;;;;9.47;1.67;;;17.90;74.90;;;;;;5056214;28;20449;-69
2021/09/28 09:06:17;;;;;;;5.60;2.23;;;18.00;74.20;;;;;;5056160;28;20453;-69
2021/09/28 09:08:48;;;;;;;7.13;2.10;;;18.20;73.70;;;;;;5055790;28;20457;-69
2021/09/28 09:11:16;;;;;;;8.17;1.60;;;18.30;74.30;;;;;;5056130;28;20430;-69
2021/09/28 09:13:45;;;;;;;11.93;1.60;;;18.50;73.90;;;;;;5056079;28;20441;-69
2021/09/28 09:16:14;;;;;;;10.90;2.33;;;18.60;71.50;;;;;;5055959;28;20484;-69
2021/09/28 09:18:44;;;;;;;8.33;1.77;;;18.70;71.80;;;;;;5056003;28;20449;-69
2021/09/28 09:21:14;;;;;;;7.10;1.83;;;18.90;71.90;;;;;;5055948;28;20442;-69
2021/09/28 09:23:42;;;;;;;5.77;1.60;;;19.00;72.00;;;;;;5055640;28;20472;-69
2021/09/28 09:26:12;;;;;;;7.60;1.77;;;19.20;70.50;;;;;;5056126;28;20430;-69
2021/09/28 09:28:43;;;;;;;5.10;1.40;;;19.30;69.30;;;;;;5055753;28;20422;-69
2021/09/28 09:31:19;;;;;;;5.60;1.70;;;19.40;68.40;;;;;;5055913;28;20441;-69
2021/09/28 09:33:46;;;;;;;5.13;1.40;;;19.70;68.30;;;;;;5055448;28;20455;-69
2021/09/28 09:36:17;;;;;;;4.70;2.00;;;19.80;67.60;;;;;;5055441;28;20465;-69
2021/09/28 09:39:39;;;;;;;9.17;2.50;;;19.90;67.10;;;;;;5055743;28;20433;-70
2021/09/28 09:48:23;;;;;;;4.77;1.27;;;20.30;65.40;;;;;;5054739;28;20449;-70
2021/09/28 09:50:55;;;;;;;9.33;2.00;;;20.70;65.10;;;;;;5055491;28;20436;-70
2021/09/28 09:53:24;;;;;;;9.57;2.20;;;21.00;64.10;;;;;;5055672;28;20436;-70
2021/09/28 09:55:51;;;;;;;3.43;1.57;;;21.20;62.30;;;;;;5054549;28;20461;-70
2021/09/28 09:58:17;;;;;;;6.27;1.70;;;21.50;61.00;;;;;;5055178;28;20908;-71
2021/09/28 10:00:44;;;;;;;6.73;1.87;;;21.80;61.30;;;;;;5055159;28;20438;-71
2021/09/28 10:03:12;;;;;;;4.90;1.67;;;22.10;59.10;;;;;;5055155;28;20451;-71
2021/09/28 10:05:39;;;;;;;7.10;1.73;;;22.30;58.70;;;;;;5055224;28;20430;-71
2021/09/28 10:08:09;;;;;;;9.47;2.37;;;22.40;57.10;;;;;;5054697;28;21066;-71
2021/09/28 10:10:38;;;;;;;10.40;2.40;;;22.50;56.40;;;;;;5055278;28;20430;-71
2021/09/28 10:13:07;;;;;;;6.20;1.73;;;22.50;56.00;;;;;;5055216;28;20430;-71
2021/09/28 10:15:34;;;;;;;6.90;1.80;;;22.50;55.50;;;;;;5054730;28;21021;-71
2021/09/28 10:18:01;;;;;;;8.00;2.67;;;22.50;55.90;;;;;;5054977;28;20477;-71
2021/09/28 10:20:31;;;;;;;3.70;1.47;;;22.60;57.00;;;;;;5054975;28;20451;-71
2021/09/28 10:22:59;;;;;;;4.90;1.73;;;22.80;56.70;;;;;;5055104;28;20445;-71
2021/09/28 10:25:40;;;;;;;7.50;1.97;;;22.90;55.60;;;;;;5055177;28;20457;-71
2021/09/28 10:28:29;;;;;;;7.73;1.70;;;23.10;55.30;;;;;;5055547;28;20796;-70
2021/09/28 10:30:57;;;;;;;12.30;2.00;;;23.30;54.20;;;;;;5045376;28;20515;-70
2021/09/28 10:33:32;;;;;;;7.90;1.60;;;23.40;53.50;;;;;;5054259;28;20446;-70
2021/09/28 10:36:00;;;;;;;5.37;1.50;;;23.60;53.00;;;;;;5054388;28;20469;-71
2021/09/28 10:39:01;;;;;;;7.90;1.77;;;23.70;52.50;;;;;;5054221;28;20903;-71
2021/09/28 10:41:44;;;;;;;9.60;1.93;;;23.90;51.80;;;;;;5054511;28;20444;-71
2021/09/28 10:44:44;;;;;;;10.87;2.10;;;24.00;50.90;;;;;;5054556;28;20434;-71
2021/09/28 10:47:43;;;;;;;7.13;1.90;;;24.10;51.40;;;;;;5054302;28;20514;-71
2021/09/28 10:50:29;;;;;;;6.10;1.57;;;24.30;50.80;;;;;;5054332;28;20434;-71
2021/09/28 10:52:57;;;;;;;5.33;1.97;;;24.30;49.60;;;;;;5053999;28;20977;-71
2021/09/28 10:55:43;;;;;;;6.50;1.73;;;24.30;49.90;;;;;;5054093;28;20726;-71
2021/09/28 10:58:17;;;;;;;9.63;1.60;;;24.50;49.50;;;;;;5054760;28;20826;-71
2021/09/28 11:01:15;;;;;;;7.43;2.10;;;24.70;49.30;;;;;;5053796;28;20432;-71
2021/09/28 11:03:55;;;;;;;11.33;1.93;;;24.90;48.20;;;;;;5054879;28;20450;-71
2021/09/28 11:07:01;;;;;;;6.83;1.80;;;24.90;47.30;;;;;;5053765;28;20547;-71
2021/09/28 11:09:44;;;;;;;4.80;1.30;;;24.80;47.30;;;;;;5053724;28;20433;-71
2021/09/28 11:12:10;;;;;;;4.50;1.43;;;25.00;47.50;;;;;;5053722;28;20491;-71
2021/09/28 11:14:39;;;;;;;7.63;2.10;;;25.30;47.00;;;;;;5053776;28;20831;-71
2021/09/28 11:17:13;;;;;;;4.87;1.50;;;25.40;46.20;;;;;;5053754;28;20473;-71
2021/09/28 11:19:40;;;;;;;4.70;1.77;;;25.50;45.20;;;;;;5053895;28;20472;-71
2021/09/28 11:22:08;;;;;;;7.70;2.00;;;25.40;45.00;;;;;;5053402;28;20434;-71
2021/09/28 11:24:36;;;;;;;6.37;1.70;;;25.50;45.10;;;;;;5053277;28;20947;-71
2021/09/28 11:27:06;;;;;;;5.83;1.83;;;25.60;45.40;;;;;;5053437;28;20470;-71
2021/09/28 11:29:33;;;;;;;5.97;1.53;;;25.60;45.40;;;;;;5053618;28;20460;-71
2021/09/28 11:32:04;;;;;;;5.20;1.60;;;25.60;45.30;;;;;;5053332;28;20449;-71
2021/09/28 11:34:33;;;;;;;5.43;1.10;;;25.50;43.90;;;;;;5053377;28;20488;-71
2021/09/28 11:37:02;;;;;;;5.10;1.33;;;25.40;44.80;;;;;;5053316;28;20827;-71
2021/09/28 11:39:33;;;;;;;6.03;1.70;;;25.20;44.50;;;;;;5053436;28;20451;-71
2021/09/28 11:42:00;;;;;;;7.93;1.53;;;25.20;45.10;;;;;;5053503;28;20851;-71
2021/09/28 11:44:35;;;;;;;7.00;1.50;;;25.10;45.60;;;;;;5053417;28;20430;-71
2021/09/28 11:47:11;;;;;;;4.97;1.37;;;25.20;46.80;;;;;;5053390;28;20464;-71
2021/09/28 11:49:49;;;;;;;11.50;1.90;;;25.30;46.80;;;;;;5053149;28;20429;-70
2021/09/28 11:52:17;;;;;;;4.40;1.30;;;25.40;45.80;;;;;;5053476;28;20433;-73
2021/09/28 11:54:45;;;;;;;6.53;1.40;;;25.40;45.60;;;;;;5053357;28;20434;-72
2021/09/28 11:57:13;;;;;;;5.60;1.50;;;25.50;45.90;;;;;;5053101;28;20473;-72
2021/09/28 11:59:40;;;;;;;6.17;1.90;;;25.60;44.70;;;;;;5053059;28;20429;-72
2021/09/28 12:02:09;;;;;;;3.50;1.40;;;25.60;44.40;;;;;;5053211;28;20456;-72
2021/09/28 12:05:13;;;;;;;6.50;1.47;;;25.70;44.40;;;;;;5053488;28;20950;-72
2021/09/28 12:10:34;;;;;;;4.00;1.50;;;25.70;42.50;;;;;;5053572;28;20413;-72
2021/09/28 12:13:22;;;;;;;3.90;1.20;;;25.60;42.60;;;;;;5052989;28;20426;-72
2021/09/28 12:16:08;;;;;;;6.67;2.23;;;25.50;42.40;;;;;;5053280;28;20474;-72
2021/09/28 12:18:36;;;;;;;5.63;1.10;;;25.50;43.20;;;;;;5054022;28;20441;-72
2021/09/28 12:21:15;;;;;;;5.40;1.57;;;25.50;43.00;;;;;;5057519;28;20429;-72
2021/09/28 12:23:43;;;;;;;8.60;2.20;;;25.50;43.30;;;;;;5057514;28;20429;-72
2021/09/28 12:26:27;;;;;;;5.00;1.70;;;25.50;43.90;;;;;;5056911;28;20500;-72
2021/09/28 12:28:55;;;;;;;5.43;1.73;;;25.60;44.50;;;;;;5057083;28;20436;-72
2021/09/28 12:31:36;;;;;;;4.50;1.40;;;25.70;44.50;;;;;;5056866;28;20409;-72
2021/09/28 12:34:04;;;;;;;4.50;1.50;;;25.80;43.70;;;;;;5056512;28;20461;-72
2021/09/28 12:36:31;;;;;;;11.27;2.60;;;25.80;44.00;;;;;;5056377;28;20485;-72
2021/09/28 12:39:17;;;;;;;9.00;2.80;;;25.90;44.30;;;;;;5056843;28;20452;-72
2021/09/28 12:42:03;;;;;;;5.00;1.90;;;26.10;44.90;;;;;;5056728;28;20433;-72
2021/09/28 12:44:31;;;;;;;5.33;2.03;;;26.40;44.20;;;;;;5056880;28;20430;-72
2021/09/28 12:46:57;;;;;;;8.97;1.90;;;26.50;42.80;;;;;;5056733;28;20472;-72
2021/09/28 12:49:30;;;;;;;7.87;1.77;;;26.70;43.20;;;;;;5056265;28;21061;-72
2021/09/28 12:51:57;;;;;;;5.30;1.60;;;27.00;43.40;;;;;;5056586;28;20877;-72
2021/09/28 12:54:24;;;;;;;4.30;1.50;;;27.20;43.00;;;;;;5056274;28;20421;-72
2021/09/28 12:56:52;;;;;;;4.67;1.80;;;27.50;41.80;;;;;;5056107;28;20538;-72
2021/09/28 12:59:20;;;;;;;4.20;1.70;;;27.80;40.80;;;;;;5056598;28;20456;-72
2021/09/28 13:01:49;;;;;;;5.53;1.60;;;27.90;38.90;;;;;;5056568;28;20441;-72
2021/09/28 13:04:17;;;;;;;5.60;1.47;;;28.00;38.80;;;;;;5056363;28;20454;-72